Time;durP1;ratioP1;P1;durP2;ratioP2;P2;SDS_P1;SDS_P2;PMS_P1;PMS_P2;Temp;Humidity;BMP_temperature;BMP_pressure;BME280_temperature;BME280_humidity;BME280_pressure;Samples;Min_cycle;Max_cycle;Signal;HPM_P1;HPM_P2
2022/04/25 00:00:12;;;;;;;12.00;9.50;;;;;;;13.42;49.40;100065.05;117485;1184;24136;-56
2022/04/25 00:02:41;;;;;;;12.50;9.60;;;;;;;13.48;49.40;100062.06;117533;1186;22918;-46
2022/04/25 00:05:10;;;;;;;13.70;9.30;;;;;;;13.51;49.33;100065.14;117566;1185;24126;-46
2022/04/25 00:07:42;;;;;;;12.00;9.40;;;;;;;13.52;49.27;100066.86;117531;1185;23570;-55
2022/04/25 00:10:14;;;;;;;11.50;9.00;;;;;;;13.52;49.19;100063.18;117485;1185;23522;-46
2022/04/25 00:12:51;;;;;;;12.10;9.00;;;;;;;13.51;49.35;100061.61;117444;1184;23444;-56
2022/04/25 00:15:21;;;;;;;10.30;8.60;;;;;;;13.52;49.28;100064.75;117521;1185;21999;-46
2022/04/25 00:17:50;;;;;;;12.90;9.90;;;;;;;13.53;49.39;100060.87;117522;1183;23550;-55
2022/04/25 00:20:24;;;;;;;13.10;9.50;;;;;;;13.52;49.36;100062.45;117469;1185;23547;-46
2022/04/25 00:23:04;;;;;;;17.00;9.20;;;;;;;13.51;49.28;100065.15;117482;1184;23544;-55
2022/04/25 00:25:37;;;;;;;10.50;8.70;;;;;;;13.49;49.27;100065.91;117498;1185;22348;-56
2022/04/25 00:28:07;;;;;;;12.70;9.60;;;;;;;13.48;49.27;100065.06;117602;1184;24148;-46
2022/04/25 00:30:35;;;;;;;12.40;8.90;;;;;;;13.46;49.36;100060.91;117548;1186;21854;-46
2022/04/25 00:33:03;;;;;;;13.80;9.90;;;;;;;13.45;49.34;100056.70;117473;1185;23442;-46
2022/04/25 00:35:34;;;;;;;;;;;;;;;13.43;49.42;100059.21;117535;1184;24794;-46
2022/04/25 00:38:03;;;;;;;12.20;8.80;;;;;;;13.42;49.44;100062.23;117523;1185;24160;-46
2022/04/25 00:40:35;;;;;;;13.30;9.00;;;;;;;13.39;49.57;100062.46;117480;1186;23560;-55
2022/04/25 00:43:05;;;;;;;14.90;9.90;;;;;;;13.39;49.80;100061.77;117481;1185;21960;-48
2022/04/25 00:45:33;;;;;;;13.70;10.40;;;;;;;13.41;49.82;100062.80;117481;1184;23468;-56
2022/04/25 00:48:02;;;;;;;11.40;9.70;;;;;;;13.43;49.92;100064.52;117577;1183;22916;-46
2022/04/25 00:50:31;;;;;;;18.50;10.90;;;;;;;13.43;49.93;100067.70;117523;1183;23707;-55
2022/04/25 00:53:00;;;;;;;16.70;11.20;;;;;;;13.39;49.90;100067.05;117620;1184;24302;-46
2022/04/25 00:55:29;;;;;;;14.30;11.00;;;;;;;13.34;49.78;100062.09;117493;1182;23442;-46
2022/04/25 00:57:59;;;;;;;13.40;10.40;;;;;;;13.32;49.72;100058.45;117393;1186;24241;-56
2022/04/25 01:00:47;;;;;;;15.60;10.70;;;;;;;13.29;49.80;100053.06;117467;1182;23433;-46
2022/04/25 01:03:17;;;;;;;13.40;10.50;;;;;;;13.29;49.75;100054.12;117440;1186;21849;-47
2022/04/25 01:05:46;;;;;;;13.40;9.60;;;;;;;13.29;49.73;100054.83;117529;1186;22313;-55
2022/04/25 01:08:14;;;;;;;13.60;10.60;;;;;;;13.29;49.70;100054.83;117477;1186;23433;-46
2022/04/25 01:10:43;;;;;;;13.40;10.10;;;;;;;13.27;49.66;100050.64;117486;1185;21849;-46
2022/04/25 01:13:14;;;;;;;16.50;11.50;;;;;;;13.27;49.62;100048.73;117555;1184;22985;-46
2022/04/25 01:15:42;;;;;;;14.20;10.10;;;;;;;13.25;49.76;100047.54;117505;1185;24161;-55
2022/04/25 01:18:11;;;;;;;12.90;9.90;;;;;;;13.22;49.62;100044.98;117579;1183;23477;-56
2022/04/25 01:20:39;;;;;;;14.70;9.70;;;;;;;13.20;49.71;100044.87;117457;1186;24143;-56
2022/04/25 01:28:55;;;;;;;11.80;9.60;;;;;;;13.10;49.67;100044.44;117393;1186;24144;-46
2022/04/25 01:31:25;;;;;;;14.70;9.60;;;;;;;13.07;49.63;100042.58;117389;1186;23435;-55
2022/04/25 01:33:56;;;;;;;12.20;10.20;;;;;;;13.03;49.76;100042.34;117527;1184;21922;-55
2022/04/25 01:36:25;;;;;;;12.30;9.80;;;;;;;12.99;49.62;100039.83;117562;1184;21846;-47
2022/04/25 01:38:53;;;;;;;12.60;9.60;;;;;;;12.94;49.73;100037.29;117429;1186;21861;-55
2022/04/25 01:41:21;;;;;;;13.20;10.40;;;;;;;12.92;49.68;100034.19;117616;1185;21845;-46
2022/04/25 01:43:49;;;;;;;11.30;9.70;;;;;;;12.91;49.70;100033.88;117513;1183;21890;-55
2022/04/25 01:46:18;;;;;;;11.80;9.90;;;;;;;12.87;49.69;100035.38;117453;1186;21846;-46
2022/04/25 01:48:46;;;;;;;12.70;10.20;;;;;;;12.83;49.62;100037.78;117498;1185;22491;-46
2022/04/25 01:51:14;;;;;;;13.00;9.90;;;;;;;12.77;49.54;100035.48;117484;1186;22998;-55
2022/04/25 01:53:43;;;;;;;13.40;10.70;;;;;;;12.72;49.67;100034.40;117422;1185;23452;-55
2022/04/25 01:56:12;;;;;;;12.10;10.20;;;;;;;12.65;49.59;100030.66;117544;1184;23545;-55
2022/04/25 01:58:40;;;;;;;12.90;10.60;;;;;;;12.59;49.58;100028.18;117521;1186;23467;-55
2022/04/25 02:01:09;;;;;;;12.60;9.90;;;;;;;12.55;49.55;100026.40;117564;1184;23552;-55
2022/04/25 02:03:38;;;;;;;14.60;10.40;;;;;;;12.50;49.64;100025.43;117534;1184;23442;-55
2022/04/25 02:06:08;;;;;;;;;;;;;;;12.48;49.72;100022.15;117378;1186;23420;-55
2022/04/25 02:08:38;;;;;;;11.80;9.10;;;;;;;12.46;49.62;100022.55;117522;1184;23641;-55
2022/04/25 02:11:22;;;;;;;15.50;10.40;;;;;;;12.43;49.65;100023.31;117524;1185;23534;-58
2022/04/25 02:13:52;;;;;;;12.10;10.10;;;;;;;12.41;49.53;100024.44;117326;1185;24159;-55
2022/04/25 02:16:26;;;;;;;14.90;10.70;;;;;;;12.33;49.67;100025.52;117431;1186;22151;-46
2022/04/25 02:18:56;;;;;;;20.00;10.50;;;;;;;12.29;49.72;100026.31;117551;1185;21847;-55
2022/04/25 02:21:30;;;;;;;16.10;10.20;;;;;;;12.30;49.80;100031.05;117387;1186;24154;-55
2022/04/25 02:24:00;;;;;;;12.60;10.50;;;;;;;12.30;49.84;100033.86;117517;1186;22078;-56
2022/04/25 02:26:31;;;;;;;13.30;10.70;;;;;;;12.28;49.81;100037.79;117486;1185;21855;-56
2022/04/25 02:29:00;;;;;;;12.30;9.70;;;;;;;12.26;49.77;100034.51;117479;1185;22921;-56
2022/04/25 02:31:30;;;;;;;13.10;9.80;;;;;;;12.23;49.73;100036.86;117514;1184;22983;-48
2022/04/25 02:34:00;;;;;;;14.40;10.10;;;;;;;12.21;49.80;100040.08;117537;1185;21932;-56
2022/04/25 02:36:28;;;;;;;13.80;10.30;;;;;;;12.18;49.83;100039.61;117526;1185;22520;-56
2022/04/25 02:38:56;;;;;;;13.30;10.00;;;;;;;12.18;50.01;100036.61;117538;1185;23458;-56
2022/04/25 02:41:27;;;;;;;12.10;10.00;;;;;;;12.17;49.92;100035.05;117571;1185;21836;-46
2022/04/25 02:43:56;;;;;;;14.10;9.90;;;;;;;12.18;49.96;100038.19;117533;1185;23580;-46
2022/04/25 02:46:24;;;;;;;10.90;9.70;;;;;;;12.17;50.05;100038.22;117516;1179;21855;-47
2022/04/25 02:48:53;;;;;;;15.70;10.80;;;;;;;12.16;49.94;100040.19;117511;1185;24155;-46
2022/04/25 02:51:22;;;;;;;13.60;10.80;;;;;;;12.16;49.97;100037.90;117525;1185;23472;-52
2022/04/25 02:53:50;;;;;;;12.30;10.20;;;;;;;12.15;49.93;100040.21;117547;1183;23462;-46
2022/04/25 02:56:21;;;;;;;15.90;12.20;;;;;;;12.14;49.92;100040.75;117413;1185;24168;-56
2022/04/25 02:58:49;;;;;;;16.00;10.80;;;;;;;12.14;50.04;100042.34;117521;1185;23445;-56
2022/04/25 03:01:17;;;;;;;15.10;10.40;;;;;;;12.14;50.01;100043.92;117512;1184;21987;-46
2022/04/25 03:03:49;;;;;;;13.50;11.30;;;;;;;12.17;50.03;100045.45;117524;1184;23487;-46
2022/04/25 03:06:22;;;;;;;15.70;12.00;;;;;;;12.11;50.07;100048.23;117519;1186;23468;-51
2022/04/25 03:08:50;;;;;;;14.60;11.30;;;;;;;12.07;50.02;100047.78;117514;1183;22991;-56
2022/04/25 03:11:21;;;;;;;17.00;12.60;;;;;;;12.04;50.09;100049.61;117501;1185;23541;-57
2022/04/25 03:13:55;;;;;;;14.10;11.70;;;;;;;12.06;50.05;100052.58;117446;1186;23563;-57
2022/04/25 03:16:26;;;;;;;16.70;11.40;;;;;;;12.08;50.17;100053.74;117554;1185;23566;-57
2022/04/25 03:18:55;;;;;;;17.60;11.60;;;;;;;12.02;50.15;100057.40;117482;1183;23467;-47
2022/04/25 03:21:25;;;;;;;17.30;11.10;;;;;;;11.98;50.17;100053.59;117407;1186;21962;-47
2022/04/25 03:23:58;;;;;;;14.00;10.60;;;;;;;11.97;50.21;100048.34;117372;1185;23451;-47
2022/04/25 03:26:26;;;;;;;16.70;11.60;;;;;;;11.96;50.05;100050.83;117463;1185;24152;-56
2022/04/25 03:28:54;;;;;;;12.60;11.00;;;;;;;11.97;50.24;100060.66;117499;1186;23471;-57
2022/04/25 03:31:22;;;;;;;17.30;11.80;;;;;;;11.98;50.14;100063.09;117518;1185;22922;-56
2022/04/25 03:33:51;;;;;;;15.00;10.90;;;;;;;11.97;50.19;100063.79;117512;1185;24134;-57
2022/04/25 03:36:20;;;;;;;18.60;13.20;;;;;;;11.96;50.14;100069.30;117536;1185;24164;-57
2022/04/25 03:38:48;;;;;;;19.70;12.90;;;;;;;11.94;50.08;100073.19;117541;1184;21861;-56
2022/04/25 03:41:18;;;;;;;17.90;12.00;;;;;;;11.97;50.37;100067.33;117542;1184;24183;-58
2022/04/25 03:43:46;;;;;;;21.00;13.10;;;;;;;12.00;50.45;100070.44;117465;1186;21886;-47
2022/04/25 03:46:16;;;;;;;15.40;11.70;;;;;;;12.09;50.36;100070.43;117457;1185;23545;-55
2022/04/25 03:48:45;;;;;;;13.90;11.60;;;;;;;12.13;50.56;100074.73;117415;1183;22643;-58
2022/04/25 03:51:14;;;;;;;20.00;13.20;;;;;;;12.18;50.71;100073.04;117483;1185;23474;-47
2022/04/25 03:53:43;;;;;;;16.90;11.80;;;;;;;12.26;50.69;100071.62;117492;1183;24162;-58
2022/04/25 03:58:59;;;;;;;21.30;12.10;;;;;;;12.49;50.96;100078.44;117622;1186;23434;-57
2022/04/25 04:01:32;;;;;;;16.30;12.80;;;;;;;12.59;50.88;100072.56;117420;1185;23464;-48
2022/04/25 04:04:05;;;;;;;17.00;12.00;;;;;;;12.70;50.83;100068.23;117480;1185;23509;-48
2022/04/25 04:06:34;;;;;;;19.80;13.30;;;;;;;12.85;50.76;100065.38;117462;1183;23548;-57
2022/04/25 04:09:44;;;;;;;14.00;12.10;;;;;;;12.95;50.80;100069.50;117415;1184;23468;-57
2022/04/25 04:11:54;;;;;;;14.60;11.00;;;;;;;13.07;50.85;100069.17;117491;1186;24164;-47
2022/04/25 04:14:23;;;;;;;15.90;12.10;;;;;;;13.11;51.09;100063.44;117513;1183;23441;-58
2022/04/25 04:16:54;;;;;;;26.30;13.30;;;;;;;13.18;51.11;100059.36;117463;1186;22921;-57
2022/04/25 04:19:28;;;;;;;18.50;11.70;;;;;;;13.32;51.26;100057.02;117450;1184;23468;-58
2022/04/25 04:21:56;;;;;;;16.50;12.00;;;;;;;13.47;51.32;100062.27;117417;1185;21853;-51
2022/04/25 04:24:25;;;;;;;14.10;11.60;;;;;;;13.59;51.24;100063.70;117461;1183;24234;-48
2022/04/25 04:27:01;;;;;;;15.80;12.00;;;;;;;13.67;51.29;100064.52;117423;1183;24303;-47
2022/04/25 04:29:30;;;;;;;17.10;12.80;;;;;;;13.75;51.33;100063.55;117540;1184;22922;-57
2022/04/25 04:32:06;;;;;;;15.90;12.20;;;;;;;13.83;51.25;100066.15;117345;1186;21853;-47
2022/04/25 04:34:35;;;;;;;16.40;11.20;;;;;;;13.87;51.21;100067.08;117499;1184;21846;-56
2022/04/25 04:37:04;;;;;;;15.60;11.30;;;;;;;13.91;51.25;100065.70;117459;1184;22926;-47
2022/04/25 04:39:32;;;;;;;16.70;12.00;;;;;;;14.00;51.37;100063.31;117487;1185;23478;-47
2022/04/25 04:42:04;;;;;;;15.80;11.40;;;;;;;14.09;51.39;100062.16;117396;1185;24152;-57
2022/04/25 04:44:33;;;;;;;18.90;11.70;;;;;;;14.21;51.46;100066.02;117538;1183;24698;-56
2022/04/25 04:47:03;;;;;;;24.40;12.20;;;;;;;14.35;51.54;100070.15;117535;1185;22726;-47
2022/04/25 04:49:31;;;;;;;14.60;10.70;;;;;;;14.48;51.54;100070.94;117377;1186;22171;-47
2022/04/25 04:51:59;;;;;;;14.00;11.40;;;;;;;14.61;51.65;100070.35;117467;1185;23433;-47
2022/04/25 04:54:28;;;;;;;14.10;11.80;;;;;;;14.75;51.62;100067.60;117467;1184;23561;-55
2022/04/25 04:56:57;;;;;;;15.70;12.20;;;;;;;14.89;51.78;100069.77;117371;1184;22652;-48
2022/04/25 04:59:25;;;;;;;15.20;11.50;;;;;;;15.00;51.56;100070.11;117471;1185;23462;-54
2022/04/25 05:01:54;;;;;;;12.30;11.00;;;;;;;15.09;51.62;100076.14;117443;1184;24190;-47
2022/04/25 05:04:24;;;;;;;12.10;10.80;;;;;;;15.16;51.62;100073.92;117561;1186;24160;-56
2022/04/25 05:06:53;;;;;;;12.50;10.20;;;;;;;15.25;51.63;100078.21;117476;1186;23564;-47
2022/04/25 05:09:25;;;;;;;13.80;10.60;;;;;;;15.35;51.58;100078.20;117437;1179;22922;-47
2022/04/25 05:11:54;;;;;;;19.90;11.80;;;;;;;15.45;51.64;100073.95;117562;1185;21836;-58
2022/04/25 05:14:23;;;;;;;11.80;9.20;;;;;;;15.58;51.83;100072.94;117563;1185;23468;-48
2022/04/25 05:16:52;;;;;;;12.60;9.50;;;;;;;15.70;51.85;100073.18;117516;1183;23567;-47
2022/04/25 05:19:21;;;;;;;11.70;9.60;;;;;;;15.77;51.69;100074.14;117334;1186;21859;-48
2022/04/25 05:21:49;;;;;;;9.40;8.40;;;;;;;15.82;51.60;100075.56;117412;1185;22811;-58
2022/04/25 05:24:17;;;;;;;11.40;8.70;;;;;;;15.84;51.61;100073.90;117378;1186;22827;-58
2022/04/25 05:26:46;;;;;;;12.40;8.30;;;;;;;15.86;51.46;100073.11;117367;1185;23550;-59
2022/04/25 05:29:17;;;;;;;10.50;8.40;;;;;;;15.92;51.53;100075.02;117343;1185;23535;-58
2022/04/25 05:31:49;;;;;;;10.00;8.80;;;;;;;15.97;51.61;100070.76;117353;1186;23640;-57
2022/04/25 05:34:28;;;;;;;11.00;8.40;;;;;;;16.04;51.65;100070.14;117390;1185;22701;-46
2022/04/25 05:36:58;;;;;;;14.50;9.40;;;;;;;16.12;51.81;100068.93;117425;1183;23656;-48
2022/04/25 05:39:28;;;;;;;9.00;7.30;;;;;;;16.21;51.74;100063.79;117435;1185;22625;-57
2022/04/25 05:42:03;;;;;;;11.00;7.90;;;;;;;16.33;51.79;100060.48;117367;1185;23640;-57
2022/04/25 05:44:32;;;;;;;11.20;7.50;;;;;;;16.46;51.81;100063.80;117423;1184;21849;-57
2022/04/25 05:47:01;;;;;;;12.00;7.50;;;;;;;16.61;52.04;100061.96;117279;1185;22923;-48
2022/04/25 05:52:17;;;;;;;9.90;6.60;;;;;;;16.95;52.05;100058.73;117317;1185;21873;-48
2022/04/25 05:54:47;;;;;;;8.10;6.30;;;;;;;17.09;52.02;100067.76;117402;1184;24149;-58
2022/04/25 05:57:18;;;;;;;8.40;6.20;;;;;;;17.23;52.16;100064.98;117438;1185;21865;-48
2022/04/25 05:59:47;;;;;;;9.20;6.40;;;;;;;17.39;52.09;100060.73;117375;1186;21934;-48
2022/04/25 06:02:17;;;;;;;9.20;5.80;;;;;;;17.56;52.09;100062.05;117423;1184;21903;-49
2022/04/25 06:04:48;;;;;;;7.30;4.60;;;;;;;17.76;52.17;100057.58;117381;1186;22646;-51
2022/04/25 06:07:17;;;;;;;8.30;5.30;;;;;;;17.94;52.13;100057.08;117338;1181;21911;-48
2022/04/25 06:09:46;;;;;;;7.80;4.90;;;;;;;18.14;52.24;100056.34;117413;1185;23649;-48
2022/04/25 06:12:15;;;;;;;6.60;4.10;;;;;;;18.40;52.35;100047.09;117382;1185;21846;-49
2022/04/25 06:14:45;;;;;;;9.50;4.40;;;;;;;18.73;52.41;100039.92;117414;1184;22826;-48
2022/04/25 06:17:15;;;;;;;7.10;4.20;;;;;;;19.01;52.39;100040.44;117352;1185;22807;-48
2022/04/25 06:19:46;;;;;;;6.50;3.60;;;;;;;19.23;52.15;100033.73;117327;1185;22836;-58
2022/04/25 06:22:17;;;;;;;7.80;3.70;;;;;;;19.43;52.06;100032.73;117414;1181;23608;-59
2022/04/25 06:24:47;;;;;;;5.00;3.50;;;;;;;19.60;51.98;100034.77;117373;1185;23547;-58
2022/04/25 06:27:15;;;;;;;7.80;3.90;;;;;;;19.71;51.94;100032.20;117416;1185;23553;-57
2022/04/25 06:29:46;;;;;;;6.60;3.20;;;;;;;19.81;51.77;100033.62;117323;1185;23553;-59
2022/04/25 06:32:19;;;;;;;3.80;2.40;;;;;;;19.91;51.71;100033.59;117307;1186;23570;-57
2022/04/25 06:34:48;;;;;;;5.70;2.80;;;;;;;20.06;51.73;100031.35;117401;1184;21849;-49
2022/04/25 06:37:16;;;;;;;5.20;2.60;;;;;;;20.21;51.67;100022.65;117285;1185;23550;-49
2022/04/25 06:39:45;;;;;;;4.40;2.50;;;;;;;20.40;51.74;100025.46;117450;1185;21856;-48
2022/04/25 06:42:14;;;;;;;5.10;2.20;;;;;;;20.57;51.68;100015.91;117334;1185;24158;-48
2022/04/25 06:44:42;;;;;;;3.90;2.20;;;;;;;20.75;51.65;100013.77;117327;1185;22039;-48
2022/04/25 06:47:11;;;;;;;3.40;2.10;;;;;;;20.91;51.55;100012.66;117302;1185;23541;-55
2022/04/25 06:49:39;;;;;;;3.90;1.90;;;;;;;21.06;51.44;100011.91;117322;1185;21848;-57
2022/04/25 06:52:10;;;;;;;4.40;2.10;;;;;;;21.25;51.38;100014.49;117361;1188;23550;-48
2022/04/25 06:54:38;;;;;;;3.00;1.90;;;;;;;21.41;51.26;100020.61;117396;1185;23570;-49
2022/04/25 06:57:13;;;;;;;4.60;1.90;;;;;;;21.56;51.22;100022.20;117348;1185;23553;-49
2022/04/25 06:59:43;;;;;;;3.30;1.50;;;;;;;21.70;51.16;100021.71;117391;1185;24255;-58
2022/04/25 07:02:15;;;;;;;4.20;2.00;;;;;;;21.86;51.13;100019.59;118042;1185;22821;-49
2022/04/25 07:04:45;;;;;;;3.40;2.00;;;;;;;22.01;50.94;100019.00;117358;1185;21837;-59
2022/04/25 07:07:16;;;;;;;4.50;1.60;;;;;;;22.10;50.75;100022.65;117416;1186;23547;-57
2022/04/25 07:09:45;;;;;;;5.20;2.50;;;;;;;22.16;50.76;100023.88;117378;1185;24167;-49
2022/04/25 07:12:16;;;;;;;3.50;1.90;;;;;;;22.28;50.77;100026.64;117392;1185;23228;-57
2022/04/25 07:14:44;;;;;;;4.40;1.80;;;;;;;22.37;50.71;100025.52;117443;1185;22934;-58
2022/04/25 07:17:15;;;;;;;;;;;;;;;22.46;50.61;100027.83;117374;1185;23723;-49
2022/04/25 07:19:48;;;;;;;7.40;2.60;;;;;;;22.57;50.48;100027.06;117411;1185;21860;-58
2022/04/25 07:30:40;;;;;;;3.00;1.90;;;;;;;22.86;50.26;100027.63;117466;1186;23575;-58
2022/04/25 07:33:09;;;;;;;3.70;2.10;;;;;;;22.99;50.29;100030.61;117546;1184;23536;-48
2022/04/25 07:35:40;;;;;;;4.30;2.50;;;;;;;23.06;49.81;100028.22;117552;1186;21878;-57
2022/04/25 07:38:10;;;;;;;5.10;2.40;;;;;;;23.07;49.65;100028.29;117404;1185;22952;-49
2022/04/25 07:40:41;;;;;;;4.10;2.50;;;;;;;23.14;49.88;100025.16;117634;1185;23589;-57
2022/04/25 07:43:10;;;;;;;;;;;;;;;23.22;49.88;100021.36;117497;1185;21827;-49
2022/04/25 07:45:40;;;;;;;4.30;2.20;;;;;;;23.34;49.82;100017.17;117525;1185;23573;-58
2022/04/25 07:48:09;;;;;;;3.10;2.00;;;;;;;23.40;49.47;100012.75;117519;1185;23566;-49
2022/04/25 07:50:39;;;;;;;5.80;2.80;;;;;;;23.46;49.57;100011.23;117369;1185;23550;-56
2022/04/25 07:53:10;;;;;;;4.20;2.50;;;;;;;23.56;49.49;100003.70;117496;1185;21836;-48
2022/04/25 07:55:40;;;;;;;3.80;2.20;;;;;;;23.66;49.53;100001.91;117537;1186;23572;-58
2022/04/25 07:58:09;;;;;;;5.40;2.40;;;;;;;23.76;49.41;99998.70;117547;1184;24155;-57
2022/04/25 08:00:41;;;;;;;4.80;2.70;;;;;;;23.82;49.25;99995.02;117451;1185;23557;-49
2022/04/25 08:03:10;;;;;;;5.90;2.10;;;;;;;23.93;49.42;99996.39;117411;1188;21845;-49
2022/04/25 08:05:40;;;;;;;3.90;2.30;;;;;;;24.10;49.50;99994.08;117462;1185;23573;-58
2022/04/25 08:08:09;;;;;;;3.50;2.20;;;;;;;24.34;49.66;99988.99;117509;1186;24163;-57
2022/04/25 08:10:45;;;;;;;4.60;2.20;;;;;;;24.66;49.57;99986.58;117447;1185;24163;-49
2022/04/25 08:19:06;;;;;;;4.50;2.20;;;;;;;24.92;48.62;99979.27;117482;1185;24155;-50
2022/04/25 08:21:38;;;;;;;4.30;2.10;;;;;;;24.74;48.17;99977.77;117428;1186;23550;-49
2022/04/25 08:24:08;;;;;;;4.90;2.20;;;;;;;24.47;47.85;99976.80;117499;1184;23537;-50
2022/04/25 08:26:38;;;;;;;3.10;1.90;;;;;;;24.31;47.94;99982.44;117517;1185;21856;-49
2022/04/25 08:29:06;;;;;;;3.40;2.10;;;;;;;24.30;48.10;99976.25;117403;1185;23569;-49
2022/04/25 08:31:36;;;;;;;3.00;1.60;;;;;;;24.41;48.35;99974.18;117464;1186;23550;-49
2022/04/25 08:34:09;;;;;;;3.90;2.00;;;;;;;24.57;48.49;99970.97;117450;1186;21870;-49
2022/04/25 08:36:38;;;;;;;;;;;;;;;24.80;48.23;99972.30;117449;1185;21871;-49
2022/04/25 08:39:09;;;;;;;4.70;2.00;;;;;;;24.95;47.80;99971.46;117423;1184;22617;-48
2022/04/25 08:41:45;;;;;;;3.40;1.70;;;;;;;25.06;47.92;99970.20;117463;1186;21954;-49
2022/04/25 08:44:16;;;;;;;2.90;2.40;;;;;;;25.08;47.74;99967.87;117428;1185;21854;-49
2022/04/25 08:46:48;;;;;;;5.00;1.80;;;;;;;25.05;47.24;99964.23;117421;1185;21860;-49
2022/04/25 08:49:18;;;;;;;5.00;2.10;;;;;;;24.99;47.02;99968.48;117328;1186;23090;-57
2022/04/25 08:51:49;;;;;;;3.30;1.60;;;;;;;24.89;47.19;99968.31;117386;1185;21867;-57
2022/04/25 08:54:17;;;;;;;3.30;1.80;;;;;;;24.84;47.19;99973.19;117379;1185;23551;-57
2022/04/25 08:56:47;;;;;;;2.90;1.40;;;;;;;24.79;47.23;99975.24;117419;1185;23853;-56
2022/04/25 08:59:15;;;;;;;6.00;1.80;;;;;;;24.68;47.17;99970.66;117339;1185;23579;-55
2022/04/25 09:01:43;;;;;;;5.40;1.70;;;;;;;24.55;46.94;99968.28;117434;1185;22641;-48
2022/04/25 09:04:13;;;;;;;4.20;2.00;;;;;;;24.36;46.54;99968.84;117437;1186;22983;-49
2022/04/25 09:06:43;;;;;;;3.90;1.70;;;;;;;24.17;46.63;99970.46;117449;1185;21904;-57
2022/04/25 09:09:16;;;;;;;6.00;2.20;;;;;;;24.04;46.43;99968.03;117329;1184;24176;-49
2022/04/25 09:14:50;;;;;;;4.30;2.00;;;;;;;23.78;46.64;99953.80;117257;1186;22637;-49
2022/04/25 09:17:38;;;;;;;4.70;2.70;;;;;;;23.72;46.72;99953.29;117427;1185;23563;-56
2022/04/25 09:20:08;;;;;;;3.80;2.20;;;;;;;23.71;46.61;99951.04;117359;1184;21839;-49
2022/04/25 09:22:42;;;;;;;4.10;2.30;;;;;;;23.72;46.49;99944.33;117405;1179;23550;-56
2022/04/25 09:25:13;;;;;;;3.70;2.10;;;;;;;23.69;46.19;99941.38;117522;1186;23576;-56
2022/04/25 09:28:08;;;;;;;2.50;1.80;;;;;;;23.56;46.28;99944.98;117454;1184;23569;-57
2022/04/25 09:30:37;;;;;;;3.20;2.00;;;;;;;23.49;46.30;99937.27;117489;1186;23555;-57
2022/04/25 09:33:22;;;;;;;2.70;1.80;;;;;;;23.57;46.48;99933.48;117391;1186;24253;-49
2022/04/25 09:35:54;;;;;;;3.30;1.80;;;;;;;23.85;46.60;99924.80;117496;1185;23614;-56
2022/04/25 09:38:34;;;;;;;3.30;2.20;;;;;;;24.09;46.69;99923.52;117542;1185;23629;-48
2022/04/25 09:41:03;;;;;;;3.40;1.90;;;;;;;24.30;46.42;99922.50;117529;1186;22938;-57
2022/04/25 09:43:36;;;;;;;3.10;1.70;;;;;;;24.41;46.27;99919.86;117441;1187;22947;-56
2022/04/25 09:46:11;;;;;;;3.60;1.80;;;;;;;24.54;46.17;99913.86;117433;1185;24152;-49
2022/04/25 09:49:03;;;;;;;2.60;1.80;;;;;;;24.59;45.64;99914.67;117403;1186;23550;-49
2022/04/25 09:51:31;;;;;;;2.50;1.80;;;;;;;24.57;45.24;99915.41;117543;1186;21849;-52
2022/04/25 09:54:03;;;;;;;3.50;1.90;;;;;;;24.47;45.26;99906.11;117471;1186;21853;-50
2022/04/25 09:56:34;;;;;;;3.40;1.80;;;;;;;24.39;45.39;99912.61;117459;1185;21916;-57
2022/04/25 09:59:03;;;;;;;;;;;;;;;24.38;45.07;99914.72;117519;1184;21837;-57
2022/04/25 10:01:35;;;;;;;3.40;2.00;;;;;;;24.39;45.25;99908.14;117527;1183;21989;-48
2022/04/25 10:04:04;;;;;;;;;;;;;;;24.38;45.38;99906.48;117551;1183;21827;-56
2022/04/25 10:06:33;;;;;;;4.00;1.90;;;;;;;24.42;45.46;99908.67;117582;1183;23644;-49
2022/04/25 10:09:05;;;;;;;8.30;2.00;;;;;;;24.60;45.82;99905.63;117526;1186;22962;-57
2022/04/25 10:11:39;;;;;;;3.20;1.90;;;;;;;24.90;45.79;99904.70;117517;1184;24172;-57
2022/04/25 10:14:07;;;;;;;2.20;1.40;;;;;;;25.15;45.38;99904.87;117548;1186;21845;-48
2022/04/25 10:16:40;;;;;;;2.90;1.80;;;;;;;25.16;44.89;99904.44;117515;1183;22747;-49
2022/04/25 10:19:09;;;;;;;5.80;1.80;;;;;;;25.07;44.54;99905.16;117480;1185;23551;-49
2022/04/25 10:21:37;;;;;;;3.30;1.50;;;;;;;24.98;43.63;99904.98;117465;1185;23550;-57
2022/04/25 10:24:06;;;;;;;8.10;1.70;;;;;;;25.04;44.35;99898.09;117388;1188;23712;-58
2022/04/25 10:26:40;;;;;;;4.20;1.70;;;;;;;25.28;44.64;99893.30;117396;1185;23540;-57
2022/04/25 10:29:21;;;;;;;2.70;1.70;;;;;;;25.56;43.80;99895.10;117375;1186;23591;-58
2022/04/25 10:31:49;;;;;;;3.40;1.50;;;;;;;25.74;44.06;99898.10;117471;1183;22620;-49
2022/04/25 10:34:44;;;;;;;3.90;1.40;;;;;;;25.90;44.08;99898.96;117371;1185;23679;-56
2022/04/25 10:37:36;;;;;;;4.80;1.50;;;;;;;26.01;44.26;99896.10;117571;1183;23547;-58
2022/04/25 10:40:08;;;;;;;3.30;1.60;;;;;;;26.13;44.27;99896.91;117535;1185;22924;-57
2022/04/25 10:46:01;;;;;;;3.60;1.70;;;;;;;26.24;43.93;99893.82;117378;1185;23547;-49
2022/04/25 10:48:51;;;;;;;4.10;1.50;;;;;;;26.29;43.92;99890.64;117486;1186;21840;-58
2022/04/25 10:51:19;;;;;;;4.80;1.50;;;;;;;26.44;44.07;99893.88;117413;1186;22617;-58
2022/04/25 10:53:57;;;;;;;6.30;2.50;;;;;;;26.59;43.73;99890.25;117414;1186;23604;-60
2022/04/25 10:56:27;;;;;;;5.10;2.80;;;;;;;26.78;44.12;99890.23;117527;1182;21849;-50
2022/04/25 10:59:22;;;;;;;3.00;1.40;;;;;;;26.92;43.20;99883.20;117503;1186;22514;-58
2022/04/25 11:01:53;;;;;;;5.00;1.70;;;;;;;26.95;42.21;99878.48;117379;1185;24701;-57
2022/04/25 11:04:22;;;;;;;4.20;1.70;;;;;;;26.91;42.77;99880.98;117368;1186;21840;-49
2022/04/25 11:07:19;;;;;;;3.50;1.50;;;;;;;26.90;42.51;99885.24;117477;1185;22639;-49
2022/04/25 11:09:48;;;;;;;2.40;1.30;;;;;;;26.86;42.61;99883.77;117489;1186;22056;-50
2022/04/25 11:12:57;;;;;;;6.70;1.50;;;;;;;26.97;43.09;99889.84;117468;1185;21844;-58
2022/04/25 11:15:50;;;;;;;2.50;1.40;;;;;;;27.16;42.80;99886.73;117488;1186;22090;-57
2022/04/25 11:18:37;;;;;;;3.20;1.40;;;;;;;27.14;41.96;99884.13;117446;1185;21850;-50
2022/04/25 11:21:07;;;;;;;2.20;1.00;;;;;;;27.07;42.34;99881.36;117486;1184;22922;-58
2022/04/25 11:23:43;;;;;;;3.10;1.70;;;;;;;27.06;42.34;99879.72;117487;1185;23363;-58
2022/04/25 11:26:20;;;;;;;4.20;1.30;;;;;;;27.10;42.56;99871.73;117408;1186;23624;-50
2022/04/25 11:28:56;;;;;;;4.30;1.60;;;;;;;27.26;42.40;99865.09;117505;1185;22199;-58
2022/04/25 11:31:25;;;;;;;3.80;1.30;;;;;;;27.36;42.28;99869.58;117506;1185;22612;-49
2022/04/25 11:34:02;;;;;;;2.90;1.50;;;;;;;27.31;42.00;99866.61;117361;1185;23551;-49
2022/04/25 11:36:31;;;;;;;4.00;2.00;;;;;;;27.24;42.08;99854.48;117503;1186;23584;-54
2022/04/25 11:41:47;;;;;;;3.90;2.10;;;;;;;27.19;41.80;99850.20;117518;1186;24229;-57
2022/04/25 11:44:15;;;;;;;5.80;2.40;;;;;;;27.16;41.93;99850.11;117434;1183;23481;-58
2022/04/25 11:46:44;;;;;;;4.60;2.40;;;;;;;27.15;41.42;99847.73;117521;1186;23548;-50
2022/04/25 11:49:12;;;;;;;5.80;2.10;;;;;;;27.11;41.60;99839.08;117579;1182;21847;-49
2022/04/25 11:51:41;;;;;;;3.80;1.40;;;;;;;27.17;41.72;99831.68;117546;1183;23592;-58
2022/04/25 11:54:10;;;;;;;4.20;2.00;;;;;;;27.16;41.31;99828.73;117557;1184;21845;-58
2022/04/25 11:56:39;;;;;;;5.80;1.90;;;;;;;27.11;41.19;99823.37;117463;1184;21849;-58
2022/04/25 11:59:13;;;;;;;3.80;2.20;;;;;;;27.07;41.16;99820.68;117463;1185;21905;-49
2022/04/25 12:01:48;;;;;;;6.20;1.90;;;;;;;27.06;41.41;99819.69;117382;1186;23008;-57
2022/04/25 12:04:21;;;;;;;3.30;1.60;;;;;;;27.12;41.26;99817.39;117476;1185;23573;-58
2022/04/25 12:07:10;;;;;;;2.50;1.50;;;;;;;27.13;40.87;99820.86;117413;1185;23537;-57